createdAt,value
2018-08-25T00:00:52.324Z,22.88
2018-08-25T00:03:22.190Z,22.53
2018-08-25T00:05:51.982Z,22.21
2018-08-25T00:08:21.753Z,22.65
2018-08-25T00:10:51.590Z,22.85
2018-08-25T00:13:21.413Z,22.56
2018-08-25T00:15:51.178Z,22.70
2018-08-25T00:18:21.019Z,22.70
2018-08-25T00:20:50.861Z,22.78
2018-08-25T00:23:20.953Z,22.81
2018-08-25T00:25:50.814Z,22.79
2018-08-25T00:28:21.430Z,22.81
2018-08-25T00:31:29.976Z,22.62
2018-08-25T00:34:00.569Z,22.65
2018-08-25T00:36:31.097Z,22.57
2018-08-25T00:39:01.630Z,21.94
2018-08-25T00:41:32.430Z,22.11
2018-08-25T00:44:02.986Z,22.09
2018-08-25T00:46:33.350Z,21.27
2018-08-25T00:49:03.930Z,21.00
2018-08-25T00:51:34.346Z,21.03
2018-08-25T00:54:05.078Z,21.71
2018-08-25T00:56:35.278Z,22.05
2018-08-25T00:59:06.574Z,21.84
2018-08-25T01:01:37.054Z,21.92
2018-08-25T01:04:08.063Z,22.12
2018-08-25T01:06:38.615Z,22.20
2018-08-25T01:09:11.281Z,21.47
2018-08-25T01:11:42.307Z,21.50
2018-08-25T01:14:12.873Z,21.85
2018-08-25T01:16:43.347Z,22.00
2018-08-25T01:19:14.869Z,22.27
2018-08-25T01:21:45.211Z,22.32
2018-08-25T01:24:15.548Z,21.96
2018-08-25T01:26:46.113Z,21.62
2018-08-25T01:29:17.040Z,21.08
2018-08-25T01:31:47.486Z,20.84
2018-08-25T01:34:17.982Z,20.88
2018-08-25T01:36:48.221Z,20.67
2018-08-25T01:39:18.802Z,20.45
2018-08-25T01:41:49.432Z,20.52
2018-08-25T01:44:19.789Z,20.51
2018-08-25T01:46:50.436Z,20.80
2018-08-25T01:49:22.295Z,20.18
2018-08-25T01:51:52.587Z,19.66
2018-08-25T01:54:22.934Z,19.66
2018-08-25T01:56:53.201Z,20.31
2018-08-25T01:59:24.030Z,20.78
2018-08-25T02:01:54.337Z,21.03
2018-08-25T02:04:24.554Z,20.31
2018-08-25T02:06:55.178Z,20.07
2018-08-25T02:09:25.864Z,20.61
2018-08-25T02:11:56.516Z,20.90
2018-08-25T02:14:27.016Z,21.04
2018-08-25T02:16:57.551Z,21.17
2018-08-25T02:19:28.078Z,21.05
2018-08-25T02:21:58.574Z,21.18
2018-08-25T02:24:28.956Z,21.18
2018-08-25T02:26:59.801Z,21.17
2018-08-25T02:29:32.172Z,20.95
2018-08-25T02:32:02.636Z,21.14
2018-08-25T02:34:33.009Z,21.25
2018-08-25T02:37:03.860Z,21.27
2018-08-25T02:39:35.013Z,21.22
2018-08-25T02:42:05.553Z,21.27
2018-08-25T02:44:36.240Z,21.35
2018-08-25T02:47:06.656Z,21.35
2018-08-25T02:49:38.330Z,21.30
2018-08-25T02:52:08.771Z,21.22
2018-08-25T02:54:39.369Z,21.16
2018-08-25T02:57:09.903Z,20.82
2018-08-25T02:59:40.924Z,21.16
2018-08-25T03:02:11.057Z,21.15
2018-08-25T03:04:41.787Z,21.19
2018-08-25T03:07:12.553Z,21.43
2018-08-25T03:09:43.262Z,21.37
2018-08-25T03:12:13.576Z,21.37
2018-08-25T03:14:44.015Z,20.91
2018-08-25T03:17:14.209Z,20.82
2018-08-25T03:19:45.130Z,20.82
2018-08-25T03:22:15.932Z,20.78
2018-08-25T03:24:46.396Z,20.72
2018-08-25T03:27:16.944Z,20.60
2018-08-25T03:29:48.724Z,20.37
2018-08-25T03:32:19.328Z,20.68
2018-08-25T03:34:49.623Z,20.75
2018-08-25T03:37:20.082Z,20.45
2018-08-25T03:39:51.147Z,19.92
2018-08-25T03:42:21.690Z,20.37
2018-08-25T03:44:52.059Z,20.72
2018-08-25T03:47:22.379Z,20.79
2018-08-25T03:49:53.756Z,20.86
2018-08-25T03:52:23.889Z,20.90
2018-08-25T03:54:54.279Z,20.89
2018-08-25T03:57:25.001Z,20.97
2018-08-25T03:59:55.487Z,20.94
2018-08-25T04:02:25.898Z,20.72
2018-08-25T04:04:56.554Z,20.78
2018-08-25T04:07:27.485Z,20.94
2018-08-25T04:09:58.773Z,20.93
2018-08-25T04:12:29.064Z,20.91
2018-08-25T04:14:59.902Z,20.50
2018-08-25T04:17:30.662Z,20.90
2018-08-25T04:20:00.933Z,21.08
2018-08-25T04:22:31.777Z,20.66
2018-08-25T04:25:02.343Z,20.69
2018-08-25T04:27:33.166Z,20.99
2018-08-25T04:30:04.134Z,21.13
2018-08-25T04:32:34.870Z,21.21
2018-08-25T04:35:05.356Z,21.31
2018-08-25T04:37:35.630Z,21.44
2018-08-25T04:40:06.796Z,21.34
2018-08-25T04:42:37.230Z,21.56
2018-08-25T04:45:07.868Z,21.56
2018-08-25T04:47:38.263Z,21.66
2018-08-25T04:50:08.782Z,21.72
2018-08-25T04:52:39.254Z,21.26
2018-08-25T04:55:09.698Z,20.96
2018-08-25T04:57:40.107Z,21.14
2018-08-25T05:00:10.862Z,20.16
2018-08-25T05:02:41.486Z,19.47
2018-08-25T05:05:11.821Z,19.21
2018-08-25T05:07:42.589Z,19.44
2018-08-25T05:10:13.233Z,19.51
2018-08-25T05:12:43.719Z,20.04
2018-08-25T05:15:14.207Z,20.10
2018-08-25T05:17:44.839Z,19.90
2018-08-25T05:20:15.975Z,19.90
2018-08-25T05:22:46.493Z,20.06
2018-08-25T05:25:16.256Z,20.21
2018-08-25T05:27:46.102Z,20.96
2018-08-25T05:30:17.217Z,20.80
2018-08-25T05:32:47.118Z,21.64
2018-08-25T05:35:17.135Z,21.84
2018-08-25T05:37:46.971Z,21.45
2018-08-25T05:40:17.947Z,21.34
2018-08-25T05:42:48.474Z,21.70
2018-08-25T05:45:18.851Z,21.33
2018-08-25T05:47:48.710Z,21.69
2018-08-25T05:50:19.105Z,21.97
2018-08-25T05:52:49.476Z,22.32
2018-08-25T05:55:19.661Z,22.60
2018-08-25T05:57:50.043Z,23.07
2018-08-25T06:00:19.936Z,23.42
2018-08-25T06:02:49.666Z,23.87
2018-08-25T06:05:19.381Z,24.21
2018-08-25T06:07:49.098Z,24.16
2018-08-25T06:10:19.010Z,25.32
2018-08-25T06:12:48.852Z,25.51
2018-08-25T06:15:18.791Z,25.56
2018-08-25T06:17:48.709Z,24.82
2018-08-25T06:20:18.504Z,23.84
2018-08-25T06:22:48.367Z,24.47
2018-08-25T06:25:18.215Z,24.67
2018-08-25T06:27:48.034Z,24.76
2018-08-25T06:30:18.031Z,24.88
2018-08-25T06:32:48.170Z,25.12
2018-08-25T06:35:18.114Z,25.10
2018-08-25T06:37:47.947Z,26.03
2018-08-25T06:40:18.587Z,25.87
2018-08-25T06:42:48.905Z,26.69
2018-08-25T06:45:18.782Z,27.27
2018-08-25T06:47:48.747Z,27.52
2018-08-25T06:50:18.652Z,28.10
2018-08-25T06:52:48.438Z,27.86
2018-08-25T06:55:18.261Z,28.10
2018-08-25T06:57:48.014Z,27.99
2018-08-25T07:00:17.842Z,27.27
2018-08-25T07:02:47.593Z,27.67
2018-08-25T07:05:17.444Z,28.16
2018-08-25T07:07:47.369Z,28.57
2018-08-25T07:10:17.310Z,28.86
2018-08-25T07:12:47.139Z,27.93
2018-08-25T07:15:16.993Z,28.43
2018-08-25T07:17:46.760Z,28.56
2018-08-25T07:20:16.642Z,29.19
2018-08-25T07:22:46.646Z,29.25
2018-08-25T07:25:16.413Z,28.96
2018-08-25T07:27:45.995Z,28.82
2018-08-25T07:30:15.634Z,29.24
2018-08-25T07:32:45.722Z,28.26
2018-08-25T07:35:16.092Z,29.12
2018-08-25T07:37:45.948Z,28.60
2018-08-25T07:40:15.955Z,29.30
2018-08-25T07:42:45.749Z,30.44
2018-08-25T07:45:16.076Z,30.32
2018-08-25T07:47:45.929Z,31.19
2018-08-25T07:50:15.698Z,30.85
2018-08-25T07:52:45.489Z,30.59
2018-08-25T07:55:15.205Z,31.11
2018-08-25T07:57:44.961Z,30.37
2018-08-25T08:00:14.913Z,31.02
2018-08-25T08:02:44.845Z,31.99
2018-08-25T08:05:15.136Z,31.86
2018-08-25T08:07:45.584Z,32.00
2018-08-25T08:10:16.008Z,31.71
2018-08-25T08:12:45.838Z,32.26
2018-08-25T08:15:16.604Z,30.96
2018-08-25T08:17:47.023Z,30.63
2018-08-25T08:20:17.374Z,30.54
2018-08-25T08:22:47.268Z,29.82
2018-08-25T08:25:17.822Z,30.85
2018-08-25T08:27:48.343Z,31.69
2018-08-25T08:30:19.344Z,31.59
2018-08-25T08:32:49.883Z,31.39
2018-08-25T08:35:20.497Z,32.17
2018-08-25T08:37:51.047Z,32.77
2018-08-25T08:40:22.282Z,33.18
2018-08-25T08:42:52.651Z,32.53
2018-08-25T08:45:23.065Z,33.38
2018-08-25T08:47:53.803Z,33.74
2018-08-25T08:50:24.325Z,34.08
2018-08-25T08:52:54.268Z,34.65
2018-08-25T08:55:24.142Z,34.25
2018-08-25T08:57:53.942Z,34.13
2018-08-25T09:00:23.792Z,33.64
2018-08-25T09:02:53.717Z,34.00
2018-08-25T09:05:23.482Z,33.19
2018-08-25T09:07:53.282Z,34.71
2018-08-25T09:10:23.303Z,35.13
2018-08-25T09:12:53.003Z,35.28
2018-08-25T09:15:22.723Z,35.15
2018-08-25T09:17:52.598Z,35.40
2018-08-25T09:20:22.559Z,35.88
2018-08-25T09:22:52.655Z,36.57
2018-08-25T09:25:22.511Z,36.44
2018-08-25T09:27:52.361Z,36.38
2018-08-25T09:30:22.201Z,36.45
2018-08-25T09:32:52.021Z,36.64
2018-08-25T09:35:21.908Z,37.64
2018-08-25T09:37:52.055Z,37.80
2018-08-25T09:40:21.934Z,37.67
2018-08-25T09:42:51.739Z,37.19
2018-08-25T09:45:21.572Z,35.99
2018-08-25T09:47:51.374Z,36.84
2018-08-25T09:50:21.252Z,36.26
2018-08-25T09:52:51.099Z,36.68
2018-08-25T09:55:20.941Z,36.22
2018-08-25T09:57:50.887Z,37.59
2018-08-25T10:00:20.756Z,38.46
2018-08-25T10:02:50.654Z,38.43
2018-08-25T10:05:20.527Z,38.87
2018-08-25T10:07:50.297Z,37.20
2018-08-25T10:10:20.217Z,38.02
2018-08-25T10:12:50.038Z,38.00
2018-08-25T10:15:19.909Z,38.24
2018-08-25T10:17:49.753Z,38.21
2018-08-25T10:20:19.600Z,38.72
2018-08-25T10:22:49.483Z,38.84
2018-08-25T10:25:19.351Z,37.76
2018-08-25T10:27:49.234Z,38.65
2018-08-25T10:30:19.068Z,38.05
2018-08-25T10:32:48.957Z,37.58
2018-08-25T10:35:18.680Z,37.65
2018-08-25T10:37:48.599Z,36.62
2018-08-25T10:40:18.830Z,37.06
2018-08-25T10:42:48.707Z,38.60
2018-08-25T10:45:18.589Z,37.62
2018-08-25T10:47:48.602Z,38.13
2018-08-25T10:50:18.417Z,39.31
2018-08-25T10:52:48.230Z,39.69
2018-08-25T10:55:18.415Z,39.05
2018-08-25T10:57:48.280Z,37.96
2018-08-25T11:00:18.277Z,38.37
2018-08-25T11:02:48.086Z,39.41
2018-08-25T11:05:17.979Z,40.06
2018-08-25T11:07:47.680Z,39.91
2018-08-25T11:10:17.494Z,38.11
2018-08-25T11:12:47.278Z,38.89
2018-08-25T11:15:17.151Z,38.17
2018-08-25T11:17:47.020Z,37.55
2018-08-25T11:20:16.744Z,37.11
2018-08-25T11:22:46.419Z,36.85
2018-08-25T11:25:16.332Z,36.27
2018-08-25T11:27:46.134Z,36.14
2018-08-25T11:30:16.150Z,35.67
2018-08-25T11:32:46.136Z,34.85
2018-08-25T11:35:16.018Z,34.66
2018-08-25T11:37:46.565Z,34.19
2018-08-25T11:40:17.612Z,34.96
2018-08-25T11:42:48.711Z,34.82
2018-08-25T11:45:19.338Z,34.34
2018-08-25T11:47:49.783Z,35.89
2018-08-25T11:50:20.718Z,36.63
2018-08-25T11:52:51.284Z,37.04
2018-08-25T11:55:21.160Z,36.29
2018-08-25T11:57:52.225Z,35.48
2018-08-25T12:00:23.955Z,35.05
2018-08-25T12:02:54.424Z,34.41
2018-08-25T12:05:25.247Z,33.82
2018-08-25T12:07:55.546Z,33.94
2018-08-25T12:10:26.445Z,34.19
2018-08-25T12:12:56.934Z,33.76
2018-08-25T12:15:27.662Z,33.61
2018-08-25T12:17:58.466Z,33.83
2018-08-25T12:20:29.569Z,33.93
2018-08-25T12:23:00.047Z,33.95
2018-08-25T12:25:30.902Z,33.66
2018-08-25T12:28:01.100Z,33.56
2018-08-25T12:30:31.099Z,33.49
2018-08-25T12:33:00.665Z,33.19
2018-08-25T12:35:30.399Z,33.40
2018-08-25T12:38:00.061Z,33.24
2018-08-25T12:40:29.872Z,33.19
2018-08-25T12:43:00.171Z,33.11
2018-08-25T12:45:30.350Z,32.46
2018-08-25T12:48:00.281Z,32.05
2018-08-25T12:50:31.109Z,31.55
2018-08-25T12:53:00.739Z,31.45
2018-08-25T12:55:30.554Z,31.67
2018-08-25T12:58:00.362Z,31.58
2018-08-25T13:00:31.089Z,30.93
2018-08-25T13:03:00.930Z,30.57
2018-08-25T13:05:30.917Z,30.13
2018-08-25T13:08:00.798Z,29.36
2018-08-25T13:10:31.535Z,29.28
2018-08-25T13:13:01.492Z,29.01
2018-08-25T13:15:31.355Z,28.76
2018-08-25T13:18:01.230Z,28.64
2018-08-25T13:20:32.180Z,28.83
2018-08-25T13:23:02.072Z,29.73
2018-08-25T13:25:32.018Z,29.88
2018-08-25T13:28:01.890Z,29.70
2018-08-25T13:30:32.435Z,28.81
2018-08-25T13:33:02.159Z,28.97
2018-08-25T13:35:32.040Z,29.68
2018-08-25T13:38:01.925Z,30.64
2018-08-25T13:40:31.816Z,30.10
2018-08-25T13:43:01.611Z,30.32
2018-08-25T13:45:31.905Z,30.66
2018-08-25T13:48:01.809Z,31.19
2018-08-25T13:50:31.608Z,30.47
2018-08-25T13:53:01.620Z,29.56
2018-08-25T13:55:31.682Z,29.45
2018-08-25T13:58:01.519Z,29.88
2018-08-25T14:00:31.490Z,30.22
2018-08-25T14:03:01.411Z,30.72
2018-08-25T14:05:31.283Z,30.90
2018-08-25T14:08:01.226Z,31.05
2018-08-25T14:10:31.069Z,30.79
2018-08-25T14:13:01.134Z,30.78
2018-08-25T14:15:31.080Z,30.43
2018-08-25T14:18:01.061Z,30.45
2018-08-25T14:20:30.971Z,30.68
2018-08-25T14:23:00.897Z,30.82
2018-08-25T14:25:30.683Z,30.91
2018-08-25T14:28:00.611Z,30.87
2018-08-25T14:30:30.429Z,30.87
2018-08-25T14:33:00.545Z,30.80
2018-08-25T14:35:30.433Z,30.42
2018-08-25T14:38:00.402Z,30.11
2018-08-25T14:40:30.236Z,29.94
2018-08-25T14:43:00.206Z,29.55
2018-08-25T14:45:29.961Z,29.87
2018-08-25T14:48:00.347Z,29.86
2018-08-25T14:50:30.079Z,29.63
2018-08-25T14:52:59.977Z,29.18
2018-08-25T14:55:29.834Z,29.02
2018-08-25T14:57:59.929Z,28.73
2018-08-25T15:00:29.820Z,29.01
2018-08-25T15:03:00.083Z,28.57
2018-08-25T15:05:30.355Z,28.53
2018-08-25T15:08:00.541Z,28.46
2018-08-25T15:10:31.498Z,28.44
2018-08-25T15:13:01.047Z,28.25
2018-08-25T15:15:30.792Z,28.14
2018-08-25T15:18:00.596Z,27.23
2018-08-25T15:20:30.881Z,26.74
2018-08-25T15:23:00.678Z,27.05
2018-08-25T15:25:30.558Z,26.79
2018-08-25T15:28:00.412Z,27.25
2018-08-25T15:30:30.400Z,27.25
2018-08-25T15:33:00.244Z,27.36
2018-08-25T15:35:30.007Z,27.34
2018-08-25T15:38:00.004Z,27.20
2018-08-25T15:40:29.784Z,27.40
2018-08-25T15:42:59.636Z,27.08
2018-08-25T15:45:29.477Z,26.35
2018-08-25T15:47:59.345Z,26.73
2018-08-25T15:50:29.597Z,26.52
2018-08-25T15:52:59.423Z,26.33
2018-08-25T15:55:29.327Z,26.75
2018-08-25T15:57:59.471Z,26.50
2018-08-25T16:00:29.312Z,26.21
2018-08-25T16:02:59.395Z,26.63
2018-08-25T16:05:29.201Z,26.75
2018-08-25T16:07:59.154Z,26.70
2018-08-25T16:10:28.914Z,26.98
2018-08-25T16:12:58.851Z,26.69
2018-08-25T16:15:28.541Z,26.36
2018-08-25T16:17:58.387Z,26.14
2018-08-25T16:20:28.116Z,26.25
2018-08-25T16:22:58.284Z,26.23
2018-08-25T16:25:27.973Z,26.26
2018-08-25T16:27:57.753Z,26.41
2018-08-25T16:30:27.827Z,26.37
2018-08-25T16:32:57.570Z,26.48
2018-08-25T16:35:27.417Z,26.80
2018-08-25T16:37:57.354Z,26.73
2018-08-25T16:40:27.160Z,26.87
2018-08-25T16:42:57.007Z,25.43
2018-08-25T16:45:26.812Z,27.05
2018-08-25T16:47:56.576Z,27.00
2018-08-25T16:50:26.383Z,27.21
2018-08-25T16:52:56.360Z,27.16
2018-08-25T16:55:26.551Z,27.01
2018-08-25T16:57:56.349Z,26.88
2018-08-25T17:00:26.103Z,26.93
2018-08-25T17:02:57.294Z,26.91
2018-08-25T17:05:27.227Z,26.91
2018-08-25T17:07:57.038Z,27.05
2018-08-25T17:10:26.804Z,26.73
2018-08-25T17:12:57.271Z,26.73
2018-08-25T17:15:27.509Z,26.15
2018-08-25T17:17:57.488Z,25.81
2018-08-25T17:20:28.169Z,25.29
2018-08-25T17:22:57.937Z,25.24
2018-08-25T17:25:27.547Z,25.23
2018-08-25T17:27:57.472Z,25.65
2018-08-25T17:30:27.992Z,25.58
2018-08-25T17:32:57.618Z,25.86
2018-08-25T17:35:27.407Z,25.85
2018-08-25T17:37:57.485Z,25.69
2018-08-25T17:40:27.233Z,25.63
2018-08-25T17:42:57.066Z,25.61
2018-08-25T17:45:26.986Z,25.87
2018-08-25T17:47:56.725Z,25.55
2018-08-25T17:50:26.739Z,25.39
2018-08-25T17:52:56.655Z,25.47
2018-08-25T17:55:26.942Z,25.50
2018-08-25T17:57:56.822Z,25.76
2018-08-25T18:00:26.728Z,25.80
2018-08-25T18:02:56.608Z,25.47
2018-08-25T18:05:26.402Z,25.53
2018-08-25T18:07:56.274Z,25.39
2018-08-25T18:10:25.899Z,25.70
2018-08-25T18:12:55.685Z,25.83
2018-08-25T18:15:25.484Z,25.76
2018-08-25T18:17:55.255Z,25.82
2018-08-25T18:20:25.096Z,25.81
2018-08-25T18:22:55.045Z,25.53
2018-08-25T18:25:25.132Z,25.39
2018-08-25T18:27:54.996Z,25.49
2018-08-25T18:30:24.845Z,25.59
2018-08-25T18:32:54.682Z,25.55
2018-08-25T18:35:24.543Z,25.50
2018-08-25T18:37:54.308Z,25.52
2018-08-25T18:40:24.090Z,25.38
2018-08-25T18:42:53.978Z,25.46
2018-08-25T18:45:24.207Z,25.47
2018-08-25T18:47:54.078Z,25.37
2018-08-25T18:50:23.870Z,25.32
2018-08-25T18:52:53.658Z,25.33
2018-08-25T18:55:23.451Z,25.35
2018-08-25T18:57:53.667Z,25.33
2018-08-25T19:00:23.514Z,25.16
2018-08-25T19:02:53.305Z,24.99
2018-08-25T19:05:23.650Z,25.02
2018-08-25T19:07:54.117Z,24.87
2018-08-25T19:10:24.535Z,24.55
2018-08-25T19:12:54.434Z,24.81
2018-08-25T19:15:24.304Z,24.89
2018-08-25T19:17:54.342Z,24.55
2018-08-25T19:20:23.999Z,24.81
2018-08-25T19:22:53.823Z,24.94
2018-08-25T19:25:23.767Z,24.94
2018-08-25T19:27:53.683Z,24.98
2018-08-25T19:30:23.626Z,24.87
2018-08-25T19:32:53.449Z,24.89
2018-08-25T19:35:23.238Z,23.94
2018-08-25T19:37:53.134Z,24.08
2018-08-25T19:40:22.895Z,24.42
2018-08-25T19:42:52.689Z,24.54
2018-08-25T19:45:22.515Z,24.58
2018-08-25T19:47:52.398Z,24.62
2018-08-25T19:50:22.360Z,24.69
2018-08-25T19:52:52.185Z,24.73
2018-08-25T19:55:22.119Z,24.71
2018-08-25T19:57:52.038Z,24.60
2018-08-25T20:00:22.525Z,24.54
2018-08-25T20:02:53.196Z,24.44
2018-08-25T20:05:23.408Z,24.38
2018-08-25T20:07:53.361Z,24.30
2018-08-25T20:10:23.500Z,24.28
2018-08-25T20:12:53.473Z,23.90
2018-08-25T20:15:23.592Z,23.87
2018-08-25T20:17:53.943Z,24.08
2018-08-25T20:20:24.451Z,24.14
2018-08-25T20:22:54.566Z,24.13
2018-08-25T20:25:24.467Z,24.05
2018-08-25T20:27:54.364Z,24.03
2018-08-25T20:30:24.859Z,23.97
2018-08-25T20:32:54.816Z,24.00
2018-08-25T20:35:24.598Z,23.92
2018-08-25T20:37:54.554Z,23.58
2018-08-25T20:40:25.198Z,23.67
2018-08-25T20:42:55.142Z,23.77
2018-08-25T20:45:25.016Z,23.71
2018-08-25T20:47:55.003Z,23.64
2018-08-25T20:50:25.726Z,23.54
2018-08-25T20:52:55.566Z,23.50
2018-08-25T20:55:25.436Z,23.52
2018-08-25T20:57:55.266Z,23.29
2018-08-25T21:00:25.656Z,23.38
2018-08-25T21:02:55.639Z,23.47
2018-08-25T21:05:25.527Z,23.50
2018-08-25T21:07:55.286Z,23.50
2018-08-25T21:10:25.217Z,23.52
2018-08-25T21:12:55.067Z,23.52
2018-08-25T21:15:24.877Z,23.51
2018-08-25T21:17:55.113Z,23.46
2018-08-25T21:20:24.909Z,23.33
2018-08-25T21:22:54.771Z,23.36
2018-08-25T21:25:25.167Z,23.23
2018-08-25T21:27:55.092Z,23.17
2018-08-25T21:30:24.907Z,23.01
2018-08-25T21:32:54.700Z,23.09
2018-08-25T21:35:24.467Z,23.22
2018-08-25T21:37:54.241Z,23.22
2018-08-25T21:40:24.070Z,23.24
2018-08-25T21:42:53.933Z,23.27
2018-08-25T21:45:23.850Z,23.23
2018-08-25T21:47:53.624Z,23.22
2018-08-25T21:50:23.364Z,23.26
2018-08-25T21:52:53.103Z,23.22
2018-08-25T21:55:22.898Z,23.22
2018-08-25T21:57:52.677Z,23.03
2018-08-25T22:00:22.560Z,23.22
2018-08-25T22:02:53.336Z,23.12
2018-08-25T22:05:23.557Z,22.96
2018-08-25T22:07:53.394Z,22.75
2018-08-25T22:10:23.718Z,22.69
2018-08-25T22:12:53.305Z,22.67
2018-08-25T22:15:23.621Z,22.83
2018-08-25T22:17:54.177Z,22.52
2018-08-25T22:20:25.320Z,22.33
2018-08-25T22:22:56.467Z,22.21
2018-08-25T22:25:26.433Z,22.45
2018-08-25T22:27:56.217Z,22.64
2018-08-25T22:30:26.707Z,22.73
2018-08-25T22:32:57.144Z,22.68
2018-08-25T22:35:28.137Z,22.74
2018-08-25T22:37:58.786Z,22.71
2018-08-25T22:40:29.163Z,22.79
2018-08-25T22:42:59.333Z,22.75
2018-08-25T22:45:29.747Z,22.80
2018-08-25T22:47:59.966Z,22.77
2018-08-25T22:50:31.018Z,22.51
2018-08-25T22:53:01.494Z,22.63
2018-08-25T22:55:31.940Z,22.65
2018-08-25T22:58:02.526Z,22.64
2018-08-25T23:00:33.576Z,22.68
2018-08-25T23:03:04.752Z,22.61
2018-08-25T23:05:35.033Z,22.58
2018-08-25T23:08:05.570Z,22.57
2018-08-25T23:10:36.892Z,22.59
2018-08-25T23:13:07.503Z,22.34
2018-08-25T23:15:37.860Z,22.18
2018-08-25T23:18:08.215Z,22.34
2018-08-25T23:20:38.526Z,22.14
2018-08-25T23:23:09.325Z,21.74
2018-08-25T23:25:39.759Z,22.04
2018-08-25T23:28:10.310Z,22.18
2018-08-25T23:30:41.137Z,22.30
2018-08-25T23:33:11.756Z,22.29
2018-08-25T23:35:42.111Z,22.27
2018-08-25T23:38:12.473Z,22.06
2018-08-25T23:40:43.074Z,22.13
2018-08-25T23:43:13.694Z,22.16
2018-08-25T23:45:44.753Z,22.18
2018-08-25T23:48:15.129Z,22.08
2018-08-25T23:50:45.738Z,22.06
2018-08-25T23:53:16.068Z,21.99
2018-08-25T23:55:47.749Z,22.02
2018-08-25T23:58:18.132Z,22.02
